Time;durP1;ratioP1;P1;durP2;ratioP2;P2;SDS_P1;SDS_P2;PMS_P1;PMS_P2;Temp;Humidity;BMP_temperature;BMP_pressure;BME280_temperature;BME280_humidity;BME280_pressure;Samples;Min_cycle;Max_cycle;Signal;HPM_P1;HPM_P2
2022/10/13 00:18:18;;;;;;;13.30;5.90;;;9.60;99.90;;;;;;9191174;19;19918;-73
2022/10/13 00:21:24;;;;;;;14.32;5.40;;;9.90;99.90;;;;;;9206248;19;19907;-74
2022/10/13 00:24:28;;;;;;;11.25;5.72;;;9.60;99.90;;;;;;9205887;19;19918;-73
2022/10/13 00:27:32;;;;;;;12.32;7.60;;;9.40;99.90;;;;;;9200449;19;19957;-74
2022/10/13 00:30:37;;;;;;;10.07;6.68;;;9.30;99.90;;;;;;9195428;19;19923;-74
2022/10/13 00:33:43;;;;;;;12.70;5.25;;;9.30;99.90;;;;;;9195706;19;20384;-74
2022/10/13 00:36:48;;;;;;;10.93;5.13;;;9.40;99.90;;;;;;9195905;19;19922;-73
2022/10/13 00:39:52;;;;;;;12.98;5.85;;;9.40;99.90;;;;;;9193180;19;19919;-73
2022/10/13 00:42:56;;;;;;;10.75;6.30;;;9.70;99.90;;;;;;9194220;19;20305;-73
2022/10/13 00:45:59;;;;;;;15.82;5.80;;;10.10;99.90;;;;;;9194567;19;20469;-73
2022/10/13 00:49:13;;;;;;;11.23;6.28;;;10.00;99.90;;;;;;9191702;19;19927;-73
2022/10/13 00:52:19;;;;;;;12.13;5.63;;;9.70;99.90;;;;;;9192798;19;19922;-73
2022/10/13 00:55:25;;;;;;;14.13;6.32;;;9.10;99.90;;;;;;9192237;19;19956;-73
2022/10/13 00:58:30;;;;;;;;;;;9.60;99.90;;;;;;9194387;19;20336;-73
2022/10/13 01:01:34;;;;;;;16.25;6.25;;;;;;;;;;9195825;19;19914;-73
2022/10/13 01:04:46;;;;;;;13.32;6.35;;;10.00;99.90;;;;;;9199769;19;20465;-73
2022/10/13 01:07:52;;;;;;;14.52;6.22;;;9.20;99.90;;;;;;9198273;19;19921;-73
2022/10/13 01:11:05;;;;;;;15.07;5.95;;;8.90;99.90;;;;;;9201875;19;19934;-74
2022/10/13 01:14:19;;;;;;;13.63;5.88;;;9.20;99.90;;;;;;9198317;19;19910;-74
2022/10/13 01:17:32;;;;;;;14.57;6.22;;;9.10;99.90;;;;;;9200389;19;19952;-74
2022/10/13 01:21:01;;;;;;;15.65;6.35;;;9.10;99.90;;;;;;9200095;19;19914;-73
2022/10/13 01:24:35;;;;;;;19.08;7.07;;;9.90;99.90;;;;;;9200460;19;19974;-74
2022/10/13 01:28:06;;;;;;;14.55;6.05;;;9.50;99.90;;;;;;9198117;19;20408;-74
2022/10/13 01:31:21;;;;;;;16.35;7.25;;;9.50;99.90;;;;;;9201633;19;19929;-74
2022/10/13 01:34:31;;;;;;;16.35;7.03;;;9.40;99.90;;;;;;9200751;19;19925;-74
2022/10/13 01:37:45;;;;;;;13.18;7.05;;;9.60;99.90;;;;;;9200512;19;19918;-74
2022/10/13 01:40:55;;;;;;;10.82;5.63;;;9.30;99.90;;;;;;9198211;19;19933;-74
2022/10/13 01:44:11;;;;;;;11.82;5.95;;;9.60;99.90;;;;;;9198334;19;19982;-74
2022/10/13 01:47:20;;;;;;;10.25;6.18;;;9.00;99.90;;;;;;9199657;19;19986;-74
2022/10/13 01:50:24;;;;;;;16.63;6.65;;;9.70;99.90;;;;;;9197203;19;19919;-74
2022/10/13 01:53:30;;;;;;;13.82;6.22;;;9.30;99.90;;;;;;9199608;19;19923;-74
2022/10/13 01:56:34;;;;;;;11.63;5.90;;;9.70;99.90;;;;;;9200557;19;19926;-74
2022/10/13 01:59:38;;;;;;;18.83;6.35;;;9.40;99.90;;;;;;9199008;19;19922;-74
2022/10/13 02:02:54;;;;;;;13.77;6.25;;;9.90;99.90;;;;;;9196156;19;19923;-74
2022/10/13 02:06:07;;;;;;;11.75;6.15;;;9.70;99.90;;;;;;9197555;19;19922;-73
2022/10/13 02:09:16;;;;;;;12.63;6.00;;;9.50;99.90;;;;;;9201476;19;19943;-73
2022/10/13 02:12:32;;;;;;;15.43;6.40;;;9.90;99.90;;;;;;9199976;19;19918;-73
2022/10/13 02:15:42;;;;;;;16.15;6.45;;;9.40;99.90;;;;;;9196985;19;19991;-74
2022/10/13 02:18:49;;;;;;;17.83;6.53;;;10.00;99.90;;;;;;9197577;19;19915;-73
2022/10/13 02:21:54;;;;;;;13.20;6.03;;;9.30;99.90;;;;;;9197869;19;19953;-73
2022/10/13 02:24:59;;;;;;;13.02;6.47;;;9.50;99.90;;;;;;9196947;19;19918;-73
2022/10/13 02:28:04;;;;;;;22.85;6.93;;;9.40;99.90;;;;;;9196958;19;19926;-73
2022/10/13 02:31:10;;;;;;;17.13;6.10;;;9.60;99.90;;;;;;9196995;19;19986;-73
2022/10/13 02:34:16;;;;;;;15.52;6.63;;;9.00;99.90;;;;;;9192409;19;19918;-74
2022/10/13 02:37:20;;;;;;;15.82;6.15;;;9.50;99.90;;;;;;9197926;19;19923;-74
2022/10/13 02:40:24;;;;;;;14.32;6.65;;;9.50;99.90;;;;;;9197067;19;19911;-75
2022/10/13 02:43:28;;;;;;;11.13;6.13;;;9.00;99.90;;;;;;9197478;19;19929;-74
2022/10/13 02:46:32;;;;;;;11.98;6.30;;;9.50;99.90;;;;;;9198672;19;19919;-74
2022/10/13 02:49:38;;;;;;;16.33;6.40;;;9.40;99.90;;;;;;9197275;19;19958;-74
2022/10/13 02:52:42;;;;;;;;;;;9.40;99.90;;;;;;9197796;19;19918;-74
2022/10/13 02:55:47;;;;;;;14.02;6.28;;;9.30;99.90;;;;;;9197145;19;19915;-74
2022/10/13 02:58:51;;;;;;;14.55;7.57;;;9.30;99.90;;;;;;9196071;19;19914;-74
2022/10/13 03:01:56;;;;;;;11.65;5.78;;;9.30;99.90;;;;;;9196947;19;19922;-73
2022/10/13 03:05:03;;;;;;;18.65;7.10;;;9.00;99.90;;;;;;9198909;19;19919;-74
2022/10/13 03:08:06;;;;;;;;;;;9.10;99.90;;;;;;9195059;19;20388;-75
2022/10/13 03:11:10;;;;;;;9.68;6.28;;;9.30;99.90;;;;;;9196756;19;19947;-74
2022/10/13 03:14:14;;;;;;;16.52;7.15;;;9.30;99.90;;;;;;9196567;19;19915;-74
2022/10/13 03:17:18;;;;;;;13.07;6.28;;;8.70;99.90;;;;;;9196674;19;19919;-74
2022/10/13 03:20:25;;;;;;;14.23;6.22;;;8.70;99.90;;;;;;9196985;19;20361;-75
2022/10/13 03:23:29;;;;;;;;;;;9.20;99.90;;;;;;9193622;19;19970;-74
2022/10/13 03:26:34;;;;;;;11.30;6.40;;;9.00;99.90;;;;;;9197363;19;19915;-73
2022/10/13 03:29:38;;;;;;;12.65;6.00;;;;;;;;;;9191996;19;19986;-74
2022/10/13 03:32:42;;;;;;;16.88;7.90;;;8.70;99.90;;;;;;9192123;19;19942;-73
2022/10/13 03:35:49;;;;;;;15.75;6.53;;;8.80;99.90;;;;;;9192681;19;20014;-73
2022/10/13 03:38:53;;;;;;;18.58;7.45;;;;;;;;;;9194374;19;19951;-73
2022/10/13 03:41:57;;;;;;;16.17;7.03;;;;;;;;;;9193286;19;19918;-72
2022/10/13 03:45:01;;;;;;;16.05;6.72;;;8.90;99.90;;;;;;9202634;19;19921;-74
2022/10/13 03:48:05;;;;;;;12.60;7.03;;;9.40;99.90;;;;;;9201386;19;20257;-73
2022/10/13 03:51:13;;;;;;;14.38;7.88;;;9.00;99.90;;;;;;9196758;19;19925;-74
2022/10/13 03:54:17;;;;;;;13.73;7.57;;;8.80;99.90;;;;;;9202657;19;19922;-73
2022/10/13 03:57:21;;;;;;;17.20;7.00;;;;;;;;;;9195107;19;19914;-74
2022/10/13 04:00:26;;;;;;;14.15;6.97;;;;;;;;;;9196926;19;19952;-74
2022/10/13 04:03:30;;;;;;;15.93;8.40;;;8.80;99.90;;;;;;9192079;19;19997;-74
2022/10/13 04:06:36;;;;;;;14.23;7.32;;;9.50;99.90;;;;;;9195313;19;19915;-73
2022/10/13 04:09:40;;;;;;;;;;;9.20;99.90;;;;;;9198209;19;19923;-74
2022/10/13 04:12:44;;;;;;;13.32;8.15;;;8.60;99.90;;;;;;9191896;19;19911;-74
2022/10/13 04:15:48;;;;;;;14.18;7.80;;;;;;;;;;9191187;19;19946;-74
2022/10/13 04:18:54;;;;;;;10.40;6.72;;;9.20;99.90;;;;;;9195721;19;19925;-74
2022/10/13 04:22:01;;;;;;;16.17;7.63;;;9.00;99.90;;;;;;9194345;19;19918;-74
2022/10/13 04:25:06;;;;;;;11.90;7.32;;;9.10;99.90;;;;;;9192771;19;20332;-74
2022/10/13 04:28:12;;;;;;;16.42;8.00;;;9.20;99.90;;;;;;9196232;19;19957;-74
2022/10/13 04:31:16;;;;;;;14.95;6.93;;;9.50;99.90;;;;;;9191366;19;19925;-75
2022/10/13 04:34:21;;;;;;;18.17;8.05;;;;;;;;;;9195500;19;19925;-74
2022/10/13 04:37:28;;;;;;;14.32;7.30;;;9.00;99.90;;;;;;9195523;19;20332;-74
2022/10/13 04:40:32;;;;;;;14.02;7.03;;;;;;;;;;9193047;19;19911;-74
2022/10/13 04:43:36;;;;;;;18.38;7.75;;;9.00;99.90;;;;;;9191120;19;19919;-74
2022/10/13 04:46:40;;;;;;;15.70;7.72;;;8.80;99.90;;;;;;9192058;19;19914;-75
2022/10/13 04:49:44;;;;;;;13.23;7.20;;;9.00;99.90;;;;;;9195231;19;19979;-73
2022/10/13 04:52:51;;;;;;;18.02;7.80;;;9.20;99.90;;;;;;9190557;19;20000;-77
2022/10/13 04:55:55;;;;;;;15.60;8.65;;;8.70;99.90;;;;;;9193721;19;19921;-74
2022/10/13 04:58:59;;;;;;;20.00;9.27;;;9.40;99.90;;;;;;9191017;19;19963;-75
2022/10/13 05:02:03;;;;;;;15.00;7.28;;;8.90;99.90;;;;;;9194519;19;19925;-76
2022/10/13 05:05:08;;;;;;;13.25;7.75;;;9.00;99.90;;;;;;9194476;19;19919;-75
2022/10/13 05:08:15;;;;;;;15.32;7.75;;;9.40;99.90;;;;;;9193823;19;19915;-75
2022/10/13 05:11:20;;;;;;;14.30;7.53;;;9.10;99.90;;;;;;9188867;19;19923;-73
2022/10/13 05:14:24;;;;;;;17.17;8.10;;;8.90;99.90;;;;;;9192681;19;19919;-73
2022/10/13 05:17:30;;;;;;;16.55;7.95;;;9.00;99.90;;;;;;9077283;19;19929;-74
2022/10/13 05:20:34;;;;;;;16.90;8.07;;;8.90;99.90;;;;;;9189811;19;19925;-74
2022/10/13 05:23:41;;;;;;;17.38;9.27;;;8.90;99.90;;;;;;9188899;19;20264;-74
2022/10/13 05:26:45;;;;;;;14.00;7.50;;;;;;;;;;9193555;19;20009;-74
2022/10/13 05:29:50;;;;;;;16.25;8.90;;;;;;;;;;9189344;19;19952;-74
2022/10/13 05:32:54;;;;;;;16.08;7.68;;;9.30;99.90;;;;;;9194336;19;20410;-74
2022/10/13 05:36:05;;;;;;;18.67;8.43;;;8.90;99.90;;;;;;9190844;19;21423;-75
2022/10/13 05:39:12;;;;;;;17.75;8.68;;;8.70;99.90;;;;;;9185440;19;19927;-75
2022/10/13 05:42:16;;;;;;;18.00;8.48;;;9.00;99.90;;;;;;9181398;19;19925;-74
2022/10/13 05:45:21;;;;;;;14.40;8.02;;;9.60;99.90;;;;;;9189632;19;19960;-74
2022/10/13 05:48:25;;;;;;;14.73;8.75;;;;;;;;;;9201102;19;19915;-74
2022/10/13 05:51:35;;;;;;;19.25;9.25;;;9.20;99.90;;;;;;9198263;19;19930;-75
2022/10/13 05:54:45;;;;;;;19.13;8.57;;;9.60;99.90;;;;;;9196513;19;19947;-75
2022/10/13 05:57:52;;;;;;;17.63;8.00;;;9.40;99.90;;;;;;9199670;19;19946;-75
2022/10/13 06:00:58;;;;;;;17.63;7.85;;;;;;;;;;9199429;19;19923;-74
2022/10/13 06:04:06;;;;;;;16.48;9.40;;;8.80;99.90;;;;;;9188312;19;20336;-75
2022/10/13 06:07:11;;;;;;;17.98;8.60;;;9.40;99.90;;;;;;9197762;19;19925;-74
2022/10/13 06:10:18;;;;;;;14.70;8.23;;;9.00;99.90;;;;;;9196556;19;19938;-73
2022/10/13 06:13:22;;;;;;;18.80;10.00;;;9.10;99.90;;;;;;9192010;19;19922;-75
2022/10/13 06:16:26;;;;;;;19.98;10.05;;;9.40;99.90;;;;;;9194768;19;19922;-73
2022/10/13 06:19:30;;;;;;;18.15;9.45;;;9.20;99.90;;;;;;9201433;19;19926;-72
2022/10/13 06:22:34;;;;;;;18.25;8.88;;;9.00;99.90;;;;;;9191918;19;19990;-74
2022/10/13 06:25:48;;;;;;;20.27;10.30;;;8.80;99.90;;;;;;9193355;19;19925;-74
2022/10/13 06:28:52;;;;;;;16.80;9.20;;;9.20;99.90;;;;;;9196812;19;19925;-74
2022/10/13 06:31:57;;;;;;;17.92;9.68;;;9.10;99.90;;;;;;9193495;19;19918;-74
2022/10/13 06:35:01;;;;;;;18.80;9.10;;;9.50;99.90;;;;;;9198517;19;19926;-74
2022/10/13 06:38:05;;;;;;;20.27;9.25;;;9.60;99.90;;;;;;9197584;19;19952;-74
2022/10/13 06:41:13;;;;;;;19.52;10.55;;;9.20;99.90;;;;;;9197900;19;19930;-73
2022/10/13 06:44:17;;;;;;;18.17;10.15;;;9.60;99.90;;;;;;9193583;19;20337;-74
2022/10/13 06:47:21;;;;;;;20.27;10.82;;;9.30;99.90;;;;;;9196742;19;19922;-73
2022/10/13 06:50:25;;;;;;;21.88;9.48;;;9.60;99.90;;;;;;9196649;19;20802;-73
2022/10/13 06:53:29;;;;;;;18.98;9.15;;;10.00;99.90;;;;;;9198001;19;19922;-73
2022/10/13 06:56:36;;;;;;;19.33;10.23;;;9.70;99.90;;;;;;9193688;19;19918;-74
2022/10/13 06:59:40;;;;;;;18.10;9.57;;;9.50;99.90;;;;;;9196796;19;19918;-74
2022/10/13 07:02:44;;;;;;;19.00;9.98;;;9.70;99.90;;;;;;9197814;19;19922;-73
2022/10/13 07:05:48;;;;;;;14.60;8.55;;;9.20;99.90;;;;;;9200502;19;20035;-73
2022/10/13 07:08:52;;;;;;;16.58;9.00;;;9.30;99.90;;;;;;9203833;19;19932;-73
2022/10/13 07:12:00;;;;;;;19.60;9.82;;;9.30;99.90;;;;;;9202651;19;20378;-73
2022/10/13 07:15:03;;;;;;;17.90;8.95;;;9.60;99.90;;;;;;9202458;19;19939;-74
2022/10/13 07:18:08;;;;;;;18.13;9.95;;;;;;;;;;9196152;19;20383;-73
2022/10/13 07:21:12;;;;;;;21.63;9.57;;;9.20;99.90;;;;;;9198406;19;19914;-73
2022/10/13 07:24:16;;;;;;;22.77;9.60;;;;;;;;;;9196496;19;19922;-74
2022/10/13 07:27:22;;;;;;;21.33;9.32;;;10.10;99.90;;;;;;9198962;19;19953;-74
2022/10/13 07:30:26;;;;;;;18.02;9.68;;;9.40;99.90;;;;;;9195992;19;19925;-73
2022/10/13 07:33:31;;;;;;;19.45;9.73;;;10.10;99.90;;;;;;9194602;19;20756;-74
2022/10/13 07:36:37;;;;;;;20.20;9.75;;;10.50;99.90;;;;;;9196366;19;19914;-73
2022/10/13 07:39:41;;;;;;;18.63;10.02;;;10.20;99.90;;;;;;9193363;19;19987;-74
2022/10/13 07:42:47;;;;;;;15.90;8.95;;;9.90;99.90;;;;;;9195909;19;19918;-73
2022/10/13 07:45:51;;;;;;;;;;;10.00;99.90;;;;;;9198109;19;19922;-74
2022/10/13 07:48:55;;;;;;;20.08;9.13;;;9.70;99.90;;;;;;9194725;19;20399;-73
2022/10/13 07:51:59;;;;;;;19.65;9.82;;;10.10;99.90;;;;;;9194895;19;19922;-73
2022/10/13 07:55:03;;;;;;;17.42;8.70;;;10.20;99.90;;;;;;9196952;19;19922;-74
2022/10/13 07:58:10;;;;;;;19.08;9.35;;;10.40;99.90;;;;;;9191701;19;19942;-74
2022/10/13 08:01:16;;;;;;;16.65;9.80;;;10.10;99.90;;;;;;9193882;19;20354;-73
2022/10/13 08:04:20;;;;;;;18.67;9.68;;;;;;;;;;9193897;19;20016;-73
2022/10/13 08:07:24;;;;;;;18.17;9.48;;;;;;;;;;9191836;19;19974;-73
2022/10/13 08:10:28;;;;;;;18.20;9.40;;;9.60;99.90;;;;;;9191016;19;20341;-74
2022/10/13 08:13:35;;;;;;;20.17;9.43;;;10.00;99.90;;;;;;9174445;19;19930;-74
2022/10/13 08:16:43;;;;;;;21.52;10.02;;;9.90;99.90;;;;;;9164053;19;19923;-74
2022/10/13 08:19:47;;;;;;;15.95;8.35;;;;;;;;;;9153767;19;19927;-74
2022/10/13 08:22:51;;;;;;;20.48;10.18;;;;;;;;;;9157683;19;19926;-74
2022/10/13 08:25:55;;;;;;;17.83;9.07;;;;;;;;;;9159024;19;19930;-74
2022/10/13 08:29:02;;;;;;;18.52;9.43;;;10.40;99.90;;;;;;9155813;19;19952;-75
2022/10/13 08:32:06;;;;;;;16.17;9.50;;;10.20;99.90;;;;;;9154156;19;19933;-74
2022/10/13 08:35:11;;;;;;;19.00;9.52;;;9.90;99.90;;;;;;9154675;19;19923;-73
2022/10/13 08:38:15;;;;;;;19.75;9.15;;;10.10;99.90;;;;;;9157216;19;19922;-73
2022/10/13 08:41:21;;;;;;;18.40;9.43;;;10.50;99.90;;;;;;9151995;19;19926;-72
2022/10/13 08:44:35;;;;;;;21.58;10.63;;;10.70;99.90;;;;;;9154109;19;20269;-73
2022/10/13 08:47:44;;;;;;;17.98;9.95;;;10.70;99.90;;;;;;9159175;19;20352;-73
2022/10/13 08:50:52;;;;;;;18.05;9.68;;;10.90;99.90;;;;;;9152437;19;20514;-73
2022/10/13 08:53:56;;;;;;;17.83;10.38;;;11.40;99.90;;;;;;9155201;19;19978;-73
2022/10/13 08:57:01;;;;;;;18.77;10.70;;;10.90;99.90;;;;;;9156490;19;19918;-73
2022/10/13 09:00:12;;;;;;;18.48;9.48;;;10.70;99.90;;;;;;9156743;19;19918;-73
2022/10/13 09:03:26;;;;;;;15.82;10.32;;;11.00;99.90;;;;;;9149710;19;19922;-74
2022/10/13 09:06:34;;;;;;;23.95;10.95;;;10.80;99.90;;;;;;9156520;19;19919;-74
2022/10/13 09:09:38;;;;;;;16.92;9.52;;;10.90;99.90;;;;;;9152943;19;19956;-74
2022/10/13 09:12:42;;;;;;;19.75;9.50;;;10.40;99.90;;;;;;9152380;19;20514;-74
2022/10/13 09:15:51;;;;;;;17.17;9.40;;;11.20;99.90;;;;;;9147310;19;19926;-75
2022/10/13 09:18:56;;;;;;;17.80;9.23;;;;;;;;;;9159203;19;19919;-74
2022/10/13 09:22:16;;;;;;;30.23;11.02;;;11.20;99.90;;;;;;9158323;19;20252;-74
2022/10/13 09:25:22;;;;;;;18.38;10.40;;;11.20;99.90;;;;;;9198439;19;19930;-74
2022/10/13 09:28:33;;;;;;;23.30;11.43;;;11.80;99.90;;;;;;9198843;19;19918;-74
2022/10/13 09:31:40;;;;;;;18.02;10.27;;;11.50;99.90;;;;;;9198046;19;19958;-74
2022/10/13 09:34:44;;;;;;;18.42;9.82;;;10.70;99.90;;;;;;9200140;19;20352;-74
2022/10/13 09:38:02;;;;;;;19.05;11.35;;;11.50;99.90;;;;;;9197989;19;20292;-74
2022/10/13 09:41:12;;;;;;;23.98;12.20;;;10.90;99.90;;;;;;9198068;19;19971;-73
2022/10/13 09:44:19;;;;;;;18.63;10.02;;;10.80;99.90;;;;;;9193614;19;19922;-74
2022/10/13 09:47:27;;;;;;;21.05;10.95;;;11.20;99.90;;;;;;9199079;19;19918;-74
2022/10/13 09:50:33;;;;;;;19.55;10.88;;;11.40;99.90;;;;;;9200203;19;19927;-74
2022/10/13 09:53:41;;;;;;;22.35;11.32;;;12.00;99.90;;;;;;9200503;19;19952;-74
2022/10/13 09:56:51;;;;;;;19.65;10.73;;;11.80;99.90;;;;;;9196605;19;19915;-74
2022/10/13 10:00:00;;;;;;;18.40;10.90;;;11.20;99.90;;;;;;9200329;19;19918;-74
2022/10/13 10:03:14;;;;;;;23.95;12.18;;;12.10;99.90;;;;;;9198601;19;19973;-72
2022/10/13 10:06:19;;;;;;;22.60;12.43;;;11.60;99.90;;;;;;9199651;19;20357;-68
2022/10/13 10:09:38;;;;;;;21.45;12.00;;;11.90;99.90;;;;;;9199911;19;19930;-69
2022/10/13 10:12:45;;;;;;;19.08;10.90;;;11.40;99.90;;;;;;9196727;19;19919;-71
2022/10/13 10:15:55;;;;;;;19.58;11.23;;;12.00;99.90;;;;;;9197903;19;19919;-72
2022/10/13 10:19:08;;;;;;;24.95;11.50;;;12.60;99.90;;;;;;9197363;19;19914;-70
2022/10/13 10:22:20;;;;;;;21.73;12.55;;;11.60;99.90;;;;;;9196086;19;19911;-71
2022/10/13 10:25:32;;;;;;;22.30;12.30;;;12.60;99.90;;;;;;9031395;19;19926;-71
2022/10/13 10:28:52;;;;;;;19.58;13.05;;;12.00;99.90;;;;;;9087777;19;19922;-74
2022/10/13 10:32:13;;;;;;;20.40;12.80;;;11.60;99.90;;;;;;9196735;19;20352;-73
2022/10/13 10:35:26;;;;;;;22.08;11.00;;;11.40;99.90;;;;;;9200084;19;19986;-72
2022/10/13 10:38:40;;;;;;;25.20;12.93;;;11.80;99.90;;;;;;9164750;19;19921;-71
2022/10/13 10:41:53;;;;;;;19.60;11.80;;;11.80;99.90;;;;;;9198165;19;19915;-71
2022/10/13 10:44:57;;;;;;;21.65;12.63;;;11.50;99.90;;;;;;9190061;19;20268;-74
2022/10/13 10:48:08;;;;;;;23.38;11.63;;;12.20;99.90;;;;;;9199969;19;19990;-74
2022/10/13 10:51:16;;;;;;;21.70;11.45;;;12.30;99.90;;;;;;9192302;19;20345;-74
2022/10/13 10:54:36;;;;;;;21.60;11.93;;;13.00;99.90;;;;;;9198627;19;19925;-73
2022/10/13 10:57:52;;;;;;;20.77;11.40;;;12.80;99.90;;;;;;9197297;19;19927;-74
2022/10/13 11:01:01;;;;;;;17.88;11.77;;;12.00;99.90;;;;;;9195673;19;19956;-74
2022/10/13 11:04:32;;;;;;;17.95;11.52;;;12.10;99.90;;;;;;9194476;19;19974;-75
2022/10/13 11:08:01;;;;;;;25.50;11.95;;;12.10;99.90;;;;;;9198539;19;19918;-74
2022/10/13 11:11:32;;;;;;;24.38;12.70;;;12.30;99.90;;;;;;9197839;19;19918;-75
2022/10/13 11:14:36;;;;;;;21.60;12.25;;;;;;;;;;9194066;19;19925;-75
2022/10/13 11:17:42;;;;;;;25.70;14.45;;;11.70;99.90;;;;;;9194966;19;19922;-76
2022/10/13 11:21:00;;;;;;;24.17;13.10;;;11.60;99.90;;;;;;9195247;19;19914;-75
2022/10/13 11:24:28;;;;;;;23.75;12.90;;;12.60;99.90;;;;;;9191069;19;19919;-73
2022/10/13 11:27:48;;;;;;;25.20;16.00;;;12.80;99.90;;;;;;9198688;19;19952;-74
2022/10/13 11:30:54;;;;;;;22.40;12.80;;;11.50;99.90;;;;;;9197345;19;20333;-74
2022/10/13 11:34:02;;;;;;;24.08;13.35;;;12.00;99.90;;;;;;9198843;19;19918;-74
2022/10/13 11:37:18;;;;;;;26.60;13.27;;;12.10;99.90;;;;;;9193915;19;19910;-74
2022/10/13 11:40:26;;;;;;;26.92;14.38;;;11.60;99.90;;;;;;9193575;19;19929;-75
2022/10/13 11:43:43;;;;;;;26.30;12.95;;;12.50;99.90;;;;;;9192247;19;19927;-75
2022/10/13 11:47:00;;;;;;;23.92;13.25;;;12.80;99.90;;;;;;9198027;19;19922;-74
2022/10/13 11:50:16;;;;;;;21.65;12.30;;;12.70;99.90;;;;;;9197463;19;19919;-74
2022/10/13 11:53:22;;;;;;;25.08;14.05;;;12.20;99.90;;;;;;9194079;19;19933;-74
2022/10/13 11:56:35;;;;;;;22.50;11.80;;;12.70;99.90;;;;;;9197605;19;19920;-73
2022/10/13 11:59:47;;;;;;;22.50;12.30;;;12.00;99.90;;;;;;9193128;19;20002;-74
2022/10/13 12:02:53;;;;;;;21.33;12.57;;;12.20;99.90;;;;;;9193368;19;19952;-73
2022/10/13 12:06:00;;;;;;;22.48;13.50;;;13.20;99.90;;;;;;9196598;19;19956;-74
2022/10/13 12:09:06;;;;;;;25.48;13.15;;;12.20;99.90;;;;;;9193409;19;19910;-73
2022/10/13 12:12:16;;;;;;;23.65;12.52;;;11.90;99.90;;;;;;9194088;19;19910;-73
2022/10/13 12:15:45;;;;;;;24.65;12.65;;;12.00;99.90;;;;;;9195270;19;19978;-73
2022/10/13 12:18:49;;;;;;;24.23;13.00;;;12.40;99.90;;;;;;9192511;19;20521;-73
2022/10/13 12:21:55;;;;;;;23.60;13.13;;;12.30;99.90;;;;;;9197984;19;19910;-74
2022/10/13 12:25:01;;;;;;;27.65;13.27;;;12.30;99.90;;;;;;9195828;19;20245;-76
2022/10/13 12:28:05;;;;;;;25.13;13.27;;;13.10;99.90;;;;;;9195175;19;19927;-74
2022/10/13 12:31:22;;;;;;;28.95;13.48;;;12.10;99.90;;;;;;9193912;19;20487;-75
2022/10/13 12:34:30;;;;;;;23.20;13.23;;;12.60;99.90;;;;;;9195012;19;19926;-75
2022/10/13 12:37:36;;;;;;;29.15;12.85;;;12.70;99.90;;;;;;9191146;19;19982;-75
2022/10/13 12:40:41;;;;;;;23.83;13.50;;;12.50;99.90;;;;;;9191975;19;19925;-74
2022/10/13 12:43:45;;;;;;;23.27;12.63;;;12.30;99.90;;;;;;9190325;19;19919;-75
2022/10/13 12:46:55;;;;;;;21.15;12.68;;;12.40;99.90;;;;;;9191806;19;19918;-75
2022/10/13 12:50:38;;;;;;;22.92;12.85;;;12.10;99.90;;;;;;9191440;19;19919;-75
2022/10/13 12:53:41;;;;;;;22.20;13.45;;;12.90;99.90;;;;;;9190838;19;20328;-75
2022/10/13 12:56:46;;;;;;;26.40;14.15;;;11.90;99.90;;;;;;9198298;19;19970;-75
2022/10/13 12:59:50;;;;;;;20.58;13.75;;;13.40;99.90;;;;;;9199262;19;20371;-75
2022/10/13 13:02:59;;;;;;;25.33;13.85;;;12.50;99.90;;;;;;9199643;19;20336;-75
2022/10/13 13:06:11;;;;;;;22.10;12.30;;;13.30;99.90;;;;;;9197589;19;19955;-75
2022/10/13 13:09:27;;;;;;;22.13;12.48;;;12.50;99.90;;;;;;9199269;19;19919;-74
2022/10/13 13:12:32;;;;;;;23.77;12.77;;;12.60;99.90;;;;;;9198465;19;19939;-75
2022/10/13 13:15:38;;;;;;;21.33;13.63;;;12.80;99.90;;;;;;9200961;19;20329;-75
2022/10/13 13:18:45;;;;;;;24.95;14.65;;;12.70;99.90;;;;;;9198426;19;20351;-76
2022/10/13 13:21:49;;;;;;;28.70;13.18;;;;;;;;;;9199157;19;19921;-75
2022/10/13 13:24:56;;;;;;;24.20;14.65;;;12.80;99.90;;;;;;9196484;19;19914;-74
2022/10/13 13:28:00;;;;;;;26.40;12.95;;;12.90;99.90;;;;;;9198875;19;19915;-75
2022/10/13 13:31:05;;;;;;;23.25;13.93;;;13.00;99.90;;;;;;9200214;19;19925;-75
2022/10/13 13:34:11;;;;;;;26.27;14.90;;;13.10;99.90;;;;;;9198787;19;20271;-75
2022/10/13 13:37:28;;;;;;;27.30;13.85;;;13.00;99.90;;;;;;9198188;19;19923;-75
2022/10/13 13:40:33;;;;;;;26.98;13.90;;;13.00;99.90;;;;;;9198728;19;19914;-74
2022/10/13 13:43:39;;;;;;;24.75;14.30;;;12.50;99.90;;;;;;9197674;19;19960;-75
2022/10/13 13:46:43;;;;;;;23.73;15.07;;;;;;;;;;9197916;19;19915;-75
2022/10/13 13:49:50;;;;;;;23.88;14.68;;;12.50;99.90;;;;;;9203247;19;19929;-75
2022/10/13 13:52:54;;;;;;;24.08;14.27;;;12.50;99.90;;;;;;9199744;19;19919;-74
2022/10/13 13:55:58;;;;;;;26.83;13.45;;;12.40;99.90;;;;;;9197446;19;19910;-75
2022/10/13 13:59:02;;;;;;;22.75;13.00;;;12.00;99.90;;;;;;9197386;19;19959;-76
2022/10/13 14:02:07;;;;;;;23.77;12.80;;;12.80;99.90;;;;;;9197486;19;19942;-75
2022/10/13 14:05:14;;;;;;;24.10;14.32;;;13.10;99.90;;;;;;9197440;19;19918;-76
2022/10/13 14:08:18;;;;;;;20.38;12.18;;;12.70;99.90;;;;;;9195571;19;19923;-76
2022/10/13 14:11:22;;;;;;;26.77;13.85;;;12.70;99.90;;;;;;9197224;19;19919;-76
2022/10/13 14:14:26;;;;;;;21.92;12.32;;;12.60;99.90;;;;;;9195644;19;19919;-75
2022/10/13 14:17:30;;;;;;;24.83;13.68;;;12.40;99.90;;;;;;9201517;19;19974;-76
2022/10/13 14:20:37;;;;;;;23.75;12.85;;;13.50;99.90;;;;;;9197932;19;19921;-76
2022/10/13 14:23:45;;;;;;;25.30;13.13;;;13.80;99.90;;;;;;9201205;19;19917;-76
2022/10/13 14:26:49;;;;;;;26.55;14.52;;;12.60;99.90;;;;;;9196937;19;19911;-76
2022/10/13 14:29:53;;;;;;;23.75;13.65;;;13.00;99.90;;;;;;9196085;19;20014;-76
2022/10/13 14:32:57;;;;;;;22.80;13.63;;;13.50;99.90;;;;;;9196253;19;19922;-76
2022/10/13 14:36:05;;;;;;;31.90;15.60;;;12.90;99.90;;;;;;9196726;19;19921;-76
2022/10/13 14:39:09;;;;;;;25.20;13.73;;;12.80;99.90;;;;;;9197270;19;19925;-75
2022/10/13 14:42:12;;;;;;;24.08;14.80;;;13.20;99.90;;;;;;9195565;19;19944;-76
2022/10/13 14:45:17;;;;;;;20.80;12.77;;;13.30;99.90;;;;;;9197850;19;20264;-76
2022/10/13 14:48:22;;;;;;;21.05;13.30;;;13.20;99.90;;;;;;9196094;19;20282;-76
2022/10/13 14:51:28;;;;;;;19.70;12.25;;;12.80;99.90;;;;;;9197881;19;19922;-75
2022/10/13 14:54:32;;;;;;;22.40;13.00;;;14.00;99.90;;;;;;9195600;19;20378;-75
2022/10/13 14:57:36;;;;;;;19.02;11.75;;;13.70;99.90;;;;;;9200257;19;19918;-75
2022/10/13 15:00:40;;;;;;;20.77;13.77;;;13.10;99.90;;;;;;9195304;19;19913;-76
2022/10/13 15:03:45;;;;;;;26.30;14.38;;;13.10;99.90;;;;;;9195725;19;19914;-76
2022/10/13 15:06:51;;;;;;;24.45;13.27;;;12.70;99.90;;;;;;9197667;19;19923;-76
2022/10/13 15:09:55;;;;;;;24.88;15.10;;;13.00;99.90;;;;;;9195823;19;20636;-74
2022/10/13 15:12:59;;;;;;;23.83;13.63;;;12.80;99.90;;;;;;9196299;19;19917;-75
2022/10/13 15:16:03;;;;;;;26.48;14.88;;;;;;;;;;9192806;19;20317;-75
2022/10/13 15:19:07;;;;;;;22.40;14.50;;;12.80;99.90;;;;;;9191819;19;20375;-75
2022/10/13 15:22:14;;;;;;;23.42;14.13;;;13.00;99.90;;;;;;9194598;19;20408;-75
2022/10/13 15:25:18;;;;;;;24.65;14.75;;;13.40;99.90;;;;;;9193513;19;19919;-74
2022/10/13 15:28:22;;;;;;;23.95;13.57;;;12.80;99.90;;;;;;9194333;19;19922;-75
2022/10/13 15:31:26;;;;;;;22.83;14.07;;;13.10;99.90;;;;;;9199043;19;19981;-75
2022/10/13 15:34:30;;;;;;;25.58;13.88;;;13.10;99.90;;;;;;9194327;19;19914;-75
2022/10/13 15:37:36;;;;;;;23.65;14.30;;;12.40;99.90;;;;;;9194327;19;19914;-76
2022/10/13 15:40:43;;;;;;;23.05;13.75;;;12.50;99.90;;;;;;9194325;19;19925;-75
2022/10/13 15:43:47;;;;;;;26.83;15.27;;;12.60;99.90;;;;;;9193421;19;19915;-76
2022/10/13 15:46:54;;;;;;;23.67;12.90;;;12.70;99.90;;;;;;9193492;19;19915;-76
2022/10/13 15:49:58;;;;;;;28.27;15.15;;;12.60;99.90;;;;;;9195395;19;19922;-75
2022/10/13 15:53:05;;;;;;;25.73;14.60;;;13.10;99.90;;;;;;9193279;19;19925;-76
2022/10/13 15:56:09;;;;;;;25.95;14.55;;;12.10;99.90;;;;;;9193883;19;19990;-75
2022/10/13 15:59:13;;;;;;;24.98;14.50;;;12.50;99.90;;;;;;9193638;19;20341;-75
2022/10/13 16:02:17;;;;;;;40.85;24.45;;;12.80;99.90;;;;;;9193982;19;19918;-76
2022/10/13 16:05:21;;;;;;;56.95;33.10;;;12.20;99.90;;;;;;9196534;19;20299;-77
2022/10/13 16:08:28;;;;;;;85.03;46.15;;;12.80;99.90;;;;;;9193186;19;19911;-76
2022/10/13 16:11:32;;;;;;;61.30;35.28;;;12.30;99.90;;;;;;9192786;19;19923;-77
2022/10/13 16:14:37;;;;;;;42.40;23.35;;;;;;;;;;9191684;19;19926;-76
2022/10/13 16:17:41;;;;;;;27.25;14.43;;;12.30;99.90;;;;;;9197441;19;19914;-76
2022/10/13 16:20:44;;;;;;;27.35;17.70;;;13.10;99.90;;;;;;9193477;19;19922;-76
2022/10/13 16:23:51;;;;;;;22.92;13.77;;;12.00;99.90;;;;;;9193046;19;19918;-76
2022/10/13 16:26:55;;;;;;;23.40;13.25;;;12.60;99.90;;;;;;9191864;19;19987;-75
2022/10/13 16:29:59;;;;;;;24.10;15.23;;;12.40;99.90;;;;;;9193618;19;19978;-75